sensor_id;sensor_type;location;lat;lon;timestamp;temperature;humidity
36450;DHT22;22475;51.390;7.180;2023-02-16T00:01:15;11.30;89.40
36450;DHT22;22475;51.390;7.180;2023-02-16T00:03:41;11.30;90.00
36450;DHT22;22475;51.390;7.180;2023-02-16T00:06:08;11.30;89.30
36450;DHT22;22475;51.390;7.180;2023-02-16T00:08:39;11.30;89.20
36450;DHT22;22475;51.390;7.180;2023-02-16T00:11:15;11.20;89.10
36450;DHT22;22475;51.390;7.180;2023-02-16T00:14:00;11.20;89.20
36450;DHT22;22475;51.390;7.180;2023-02-16T00:16:28;11.20;89.10
36450;DHT22;22475;51.390;7.180;2023-02-16T00:18:55;11.20;89.10
36450;DHT22;22475;51.390;7.180;2023-02-16T00:21:21;11.20;89.10
36450;DHT22;22475;51.390;7.180;2023-02-16T00:23:48;11.20;89.20
36450;DHT22;22475;51.390;7.180;2023-02-16T00:26:17;11.20;89.30
36450;DHT22;22475;51.390;7.180;2023-02-16T00:28:44;11.20;89.20
36450;DHT22;22475;51.390;7.180;2023-02-16T00:31:18;11.20;89.20
36450;DHT22;22475;51.390;7.180;2023-02-16T00:33:47;11.20;89.30
36450;DHT22;22475;51.390;7.180;2023-02-16T00:36:14;11.20;89.30
36450;DHT22;22475;51.390;7.180;2023-02-16T00:38:41;11.20;89.30
36450;DHT22;22475;51.390;7.180;2023-02-16T00:41:15;11.20;89.30
36450;DHT22;22475;51.390;7.180;2023-02-16T00:44:04;11.20;89.30
36450;DHT22;22475;51.390;7.180;2023-02-16T00:46:31;11.20;89.20
36450;DHT22;22475;51.390;7.180;2023-02-16T00:48:59;11.20;89.10
36450;DHT22;22475;51.390;7.180;2023-02-16T00:51:26;11.20;89.20
36450;DHT22;22475;51.390;7.180;2023-02-16T00:53:53;11.20;89.30
36450;DHT22;22475;51.390;7.180;2023-02-16T00:56:19;11.20;89.30
36450;DHT22;22475;51.390;7.180;2023-02-16T00:58:49;11.20;89.50
36450;DHT22;22475;51.390;7.180;2023-02-16T01:01:17;11.20;89.60
36450;DHT22;22475;51.390;7.180;2023-02-16T01:03:46;11.20;89.70
36450;DHT22;22475;51.390;7.180;2023-02-16T01:06:14;11.20;89.80
36450;DHT22;22475;51.390;7.180;2023-02-16T01:09:08;11.20;90.00
36450;DHT22;22475;51.390;7.180;2023-02-16T01:11:54;11.20;90.00
36450;DHT22;22475;51.390;7.180;2023-02-16T01:14:21;11.20;90.10
36450;DHT22;22475;51.390;7.180;2023-02-16T01:16:48;11.20;90.10
36450;DHT22;22475;51.390;7.180;2023-02-16T01:19:15;11.20;90.20
36450;DHT22;22475;51.390;7.180;2023-02-16T01:21:43;11.30;90.60
36450;DHT22;22475;51.390;7.180;2023-02-16T01:24:09;11.30;90.30
36450;DHT22;22475;51.390;7.180;2023-02-16T01:26:38;11.30;90.40
36450;DHT22;22475;51.390;7.180;2023-02-16T01:29:05;11.30;90.40
36450;DHT22;22475;51.390;7.180;2023-02-16T01:31:32;11.30;90.40
36450;DHT22;22475;51.390;7.180;2023-02-16T01:33:59;11.30;90.40
36450;DHT22;22475;51.390;7.180;2023-02-16T01:36:28;11.30;90.50
36450;DHT22;22475;51.390;7.180;2023-02-16T01:38:57;11.30;90.50
36450;DHT22;22475;51.390;7.180;2023-02-16T01:41:34;11.40;90.50
36450;DHT22;22475;51.390;7.180;2023-02-16T01:44:04;11.30;90.50
36450;DHT22;22475;51.390;7.180;2023-02-16T01:46:38;11.40;90.60
36450;DHT22;22475;51.390;7.180;2023-02-16T01:49:11;11.40;90.60
36450;DHT22;22475;51.390;7.180;2023-02-16T01:51:45;11.40;90.60
36450;DHT22;22475;51.390;7.180;2023-02-16T01:54:24;11.40;90.50
36450;DHT22;22475;51.390;7.180;2023-02-16T01:56:56;11.30;90.50
36450;DHT22;22475;51.390;7.180;2023-02-16T01:59:31;11.30;90.50
36450;DHT22;22475;51.390;7.180;2023-02-16T02:02:02;11.40;90.50
36450;DHT22;22475;51.390;7.180;2023-02-16T02:04:36;11.30;90.40
36450;DHT22;22475;51.390;7.180;2023-02-16T02:07:27;11.30;90.40
36450;DHT22;22475;51.390;7.180;2023-02-16T02:10:01;11.40;90.40
36450;DHT22;22475;51.390;7.180;2023-02-16T02:12:35;11.40;90.40
36450;DHT22;22475;51.390;7.180;2023-02-16T02:15:02;11.40;90.50
36450;DHT22;22475;51.390;7.180;2023-02-16T02:17:29;11.40;90.50
36450;DHT22;22475;51.390;7.180;2023-02-16T02:20:04;11.40;90.50
36450;DHT22;22475;51.390;7.180;2023-02-16T02:29:41;11.40;90.60
36450;DHT22;22475;51.390;7.180;2023-02-16T02:32:18;11.40;90.50
36450;DHT22;22475;51.390;7.180;2023-02-16T02:34:57;11.40;90.50
36450;DHT22;22475;51.390;7.180;2023-02-16T02:37:33;11.40;90.50
36450;DHT22;22475;51.390;7.180;2023-02-16T02:40:07;11.30;90.40
36450;DHT22;22475;51.390;7.180;2023-02-16T02:42:41;11.40;90.50
36450;DHT22;22475;51.390;7.180;2023-02-16T02:45:15;11.30;90.50
36450;DHT22;22475;51.390;7.180;2023-02-16T02:47:46;11.40;90.50
36450;DHT22;22475;51.390;7.180;2023-02-16T02:50:38;11.40;90.50
36450;DHT22;22475;51.390;7.180;2023-02-16T02:53:10;11.30;90.50
36450;DHT22;22475;51.390;7.180;2023-02-16T02:55:44;11.30;90.80
36450;DHT22;22475;51.390;7.180;2023-02-16T02:58:32;11.40;90.50
36450;DHT22;22475;51.390;7.180;2023-02-16T03:01:19;11.40;90.50
36450;DHT22;22475;51.390;7.180;2023-02-16T03:03:49;11.40;90.50
36450;DHT22;22475;51.390;7.180;2023-02-16T03:06:19;11.40;90.50
36450;DHT22;22475;51.390;7.180;2023-02-16T03:08:50;11.30;90.50
36450;DHT22;22475;51.390;7.180;2023-02-16T03:11:21;11.40;90.50
36450;DHT22;22475;51.390;7.180;2023-02-16T03:14:09;11.30;90.80
36450;DHT22;22475;51.390;7.180;2023-02-16T03:16:41;11.30;90.50
36450;DHT22;22475;51.390;7.180;2023-02-16T03:19:11;11.30;90.40
36450;DHT22;22475;51.390;7.180;2023-02-16T03:21:57;11.30;90.40
36450;DHT22;22475;51.390;7.180;2023-02-16T03:24:42;11.40;90.40
36450;DHT22;22475;51.390;7.180;2023-02-16T03:27:30;11.30;90.40
36450;DHT22;22475;51.390;7.180;2023-02-16T03:30:16;11.30;90.40
36450;DHT22;22475;51.390;7.180;2023-02-16T03:32:45;11.30;90.40
36450;DHT22;22475;51.390;7.180;2023-02-16T03:35:13;11.30;90.40
36450;DHT22;22475;51.390;7.180;2023-02-16T03:37:40;11.30;90.40
36450;DHT22;22475;51.390;7.180;2023-02-16T03:40:10;11.30;90.40
36450;DHT22;22475;51.390;7.180;2023-02-16T03:43:00;11.30;90.40
36450;DHT22;22475;51.390;7.180;2023-02-16T03:45:27;11.30;90.30
36450;DHT22;22475;51.390;7.180;2023-02-16T03:47:55;11.30;90.30
36450;DHT22;22475;51.390;7.180;2023-02-16T03:50:22;11.30;90.30
36450;DHT22;22475;51.390;7.180;2023-02-16T03:52:53;11.30;90.20
36450;DHT22;22475;51.390;7.180;2023-02-16T03:55:31;11.30;90.20
36450;DHT22;22475;51.390;7.180;2023-02-16T03:57:58;11.30;90.20
36450;DHT22;22475;51.390;7.180;2023-02-16T04:00:24;11.30;90.20
36450;DHT22;22475;51.390;7.180;2023-02-16T04:02:51;11.30;90.20
36450;DHT22;22475;51.390;7.180;2023-02-16T04:05:19;11.30;90.20
36450;DHT22;22475;51.390;7.180;2023-02-16T04:07:46;11.30;90.20
36450;DHT22;22475;51.390;7.180;2023-02-16T04:10:13;11.30;90.10
36450;DHT22;22475;51.390;7.180;2023-02-16T04:12:40;11.30;90.10
36450;DHT22;22475;51.390;7.180;2023-02-16T04:15:08;11.30;90.10
36450;DHT22;22475;51.390;7.180;2023-02-16T04:17:35;11.30;90.10
36450;DHT22;22475;51.390;7.180;2023-02-16T04:20:02;11.30;90.00
36450;DHT22;22475;51.390;7.180;2023-02-16T04:22:31;11.30;89.80
36450;DHT22;22475;51.390;7.180;2023-02-16T04:24:57;11.30;89.70
36450;DHT22;22475;51.390;7.180;2023-02-16T04:27:24;11.20;89.50
36450;DHT22;22475;51.390;7.180;2023-02-16T04:29:51;11.30;89.50
36450;DHT22;22475;51.390;7.180;2023-02-16T04:32:18;11.20;89.50
36450;DHT22;22475;51.390;7.180;2023-02-16T04:34:44;11.20;89.50
36450;DHT22;22475;51.390;7.180;2023-02-16T04:37:11;11.20;89.50
36450;DHT22;22475;51.390;7.180;2023-02-16T04:39:39;11.20;89.50
36450;DHT22;22475;51.390;7.180;2023-02-16T04:42:06;11.20;89.60
36450;DHT22;22475;51.390;7.180;2023-02-16T04:44:33;11.20;89.60
36450;DHT22;22475;51.390;7.180;2023-02-16T04:47:00;11.20;89.50
36450;DHT22;22475;51.390;7.180;2023-02-16T04:49:26;11.20;89.50
36450;DHT22;22475;51.390;7.180;2023-02-16T04:51:53;11.20;89.60
36450;DHT22;22475;51.390;7.180;2023-02-16T04:54:20;11.20;89.50
36450;DHT22;22475;51.390;7.180;2023-02-16T04:56:48;11.20;89.30
36450;DHT22;22475;51.390;7.180;2023-02-16T04:59:15;11.20;89.30
36450;DHT22;22475;51.390;7.180;2023-02-16T05:01:42;11.20;89.30
36450;DHT22;22475;51.390;7.180;2023-02-16T05:04:09;11.10;89.30
36450;DHT22;22475;51.390;7.180;2023-02-16T05:06:36;11.10;89.20
36450;DHT22;22475;51.390;7.180;2023-02-16T05:09:03;11.20;89.20
36450;DHT22;22475;51.390;7.180;2023-02-16T05:11:30;11.10;89.10
36450;DHT22;22475;51.390;7.180;2023-02-16T05:14:20;11.10;89.20
36450;DHT22;22475;51.390;7.180;2023-02-16T05:17:04;11.10;89.30
36450;DHT22;22475;51.390;7.180;2023-02-16T05:19:31;11.10;89.30
36450;DHT22;22475;51.390;7.180;2023-02-16T05:21:58;11.10;89.30
36450;DHT22;22475;51.390;7.180;2023-02-16T05:24:25;11.10;89.20
36450;DHT22;22475;51.390;7.180;2023-02-16T05:26:52;11.10;89.00
36450;DHT22;22475;51.390;7.180;2023-02-16T05:29:20;11.10;89.10
36450;DHT22;22475;51.390;7.180;2023-02-16T05:31:47;11.10;89.00
36450;DHT22;22475;51.390;7.180;2023-02-16T05:34:14;11.10;89.10
36450;DHT22;22475;51.390;7.180;2023-02-16T05:36:40;11.00;89.10
36450;DHT22;22475;51.390;7.180;2023-02-16T05:39:07;11.00;89.00
36450;DHT22;22475;51.390;7.180;2023-02-16T05:41:34;11.00;89.00
36450;DHT22;22475;51.390;7.180;2023-02-16T05:44:02;11.00;89.00
36450;DHT22;22475;51.390;7.180;2023-02-16T05:46:32;11.00;89.00
36450;DHT22;22475;51.390;7.180;2023-02-16T05:49:00;11.00;89.10
36450;DHT22;22475;51.390;7.180;2023-02-16T05:51:27;11.00;89.20
36450;DHT22;22475;51.390;7.180;2023-02-16T05:53:54;11.00;89.20
36450;DHT22;22475;51.390;7.180;2023-02-16T05:56:22;11.00;89.10
36450;DHT22;22475;51.390;7.180;2023-02-16T05:58:49;11.00;89.00
36450;DHT22;22475;51.390;7.180;2023-02-16T06:01:16;11.00;88.90
36450;DHT22;22475;51.390;7.180;2023-02-16T06:03:45;11.00;88.30
36450;DHT22;22475;51.390;7.180;2023-02-16T06:06:12;11.00;89.00
36450;DHT22;22475;51.390;7.180;2023-02-16T06:08:39;11.00;89.10
36450;DHT22;22475;51.390;7.180;2023-02-16T06:11:06;11.00;89.10
36450;DHT22;22475;51.390;7.180;2023-02-16T06:13:54;11.00;89.00
36450;DHT22;22475;51.390;7.180;2023-02-16T06:16:23;11.00;89.10
36450;DHT22;22475;51.390;7.180;2023-02-16T06:18:52;11.00;89.10
36450;DHT22;22475;51.390;7.180;2023-02-16T06:21:19;11.00;89.20
36450;DHT22;22475;51.390;7.180;2023-02-16T06:23:46;11.00;89.20
36450;DHT22;22475;51.390;7.180;2023-02-16T06:26:13;11.00;89.30
36450;DHT22;22475;51.390;7.180;2023-02-16T06:28:40;11.00;89.40
36450;DHT22;22475;51.390;7.180;2023-02-16T06:31:07;11.00;89.40
36450;DHT22;22475;51.390;7.180;2023-02-16T06:33:34;11.00;89.30
36450;DHT22;22475;51.390;7.180;2023-02-16T06:36:02;11.00;89.20
36450;DHT22;22475;51.390;7.180;2023-02-16T06:38:29;11.10;89.30
36450;DHT22;22475;51.390;7.180;2023-02-16T06:40:56;11.00;89.10
36450;DHT22;22475;51.390;7.180;2023-02-16T06:43:23;11.00;89.00
36450;DHT22;22475;51.390;7.180;2023-02-16T06:45:49;11.00;89.10
36450;DHT22;22475;51.390;7.180;2023-02-16T06:48:16;11.10;89.30
36450;DHT22;22475;51.390;7.180;2023-02-16T06:50:43;11.00;89.20
36450;DHT22;22475;51.390;7.180;2023-02-16T06:53:11;11.00;89.30
36450;DHT22;22475;51.390;7.180;2023-02-16T06:55:38;11.10;89.40
36450;DHT22;22475;51.390;7.180;2023-02-16T06:58:05;11.10;89.40
36450;DHT22;22475;51.390;7.180;2023-02-16T07:00:33;11.00;89.20
36450;DHT22;22475;51.390;7.180;2023-02-16T07:03:00;11.00;89.10
36450;DHT22;22475;51.390;7.180;2023-02-16T07:05:27;11.00;89.00
36450;DHT22;22475;51.390;7.180;2023-02-16T07:07:54;11.00;89.80
36450;DHT22;22475;51.390;7.180;2023-02-16T07:10:22;11.10;89.30
36450;DHT22;22475;51.390;7.180;2023-02-16T07:12:49;11.10;89.50
36450;DHT22;22475;51.390;7.180;2023-02-16T07:15:16;11.10;89.60
36450;DHT22;22475;51.390;7.180;2023-02-16T07:17:43;11.10;89.60
36450;DHT22;22475;51.390;7.180;2023-02-16T07:20:10;11.10;89.60
36450;DHT22;22475;51.390;7.180;2023-02-16T07:22:38;11.10;89.60
36450;DHT22;22475;51.390;7.180;2023-02-16T07:25:05;11.10;89.70
36450;DHT22;22475;51.390;7.180;2023-02-16T07:27:33;11.10;89.80
36450;DHT22;22475;51.390;7.180;2023-02-16T07:30:00;11.10;89.70
36450;DHT22;22475;51.390;7.180;2023-02-16T07:32:28;11.10;89.60
36450;DHT22;22475;51.390;7.180;2023-02-16T07:34:56;11.10;89.60
36450;DHT22;22475;51.390;7.180;2023-02-16T07:37:23;11.10;89.60
36450;DHT22;22475;51.390;7.180;2023-02-16T07:39:50;11.10;89.60
36450;DHT22;22475;51.390;7.180;2023-02-16T07:42:18;11.20;89.70
36450;DHT22;22475;51.390;7.180;2023-02-16T07:44:46;11.20;89.80
36450;DHT22;22475;51.390;7.180;2023-02-16T07:47:13;11.20;90.00
36450;DHT22;22475;51.390;7.180;2023-02-16T07:49:40;11.20;90.00
36450;DHT22;22475;51.390;7.180;2023-02-16T07:52:07;11.20;90.00
36450;DHT22;22475;51.390;7.180;2023-02-16T07:54:34;11.20;90.00
36450;DHT22;22475;51.390;7.180;2023-02-16T07:57:00;11.20;90.10
36450;DHT22;22475;51.390;7.180;2023-02-16T07:59:27;11.20;90.10
36450;DHT22;22475;51.390;7.180;2023-02-16T08:01:55;11.20;90.10
36450;DHT22;22475;51.390;7.180;2023-02-16T08:04:22;11.20;90.20
36450;DHT22;22475;51.390;7.180;2023-02-16T08:06:49;11.30;90.30
36450;DHT22;22475;51.390;7.180;2023-02-16T08:09:15;11.30;90.30
36450;DHT22;22475;51.390;7.180;2023-02-16T08:11:42;11.20;90.30
36450;DHT22;22475;51.390;7.180;2023-02-16T08:14:09;11.30;90.30
36450;DHT22;22475;51.390;7.180;2023-02-16T08:16:36;11.30;90.40
36450;DHT22;22475;51.390;7.180;2023-02-16T08:19:04;11.30;90.40
36450;DHT22;22475;51.390;7.180;2023-02-16T08:21:32;11.30;90.40
36450;DHT22;22475;51.390;7.180;2023-02-16T08:24:00;11.30;90.40
36450;DHT22;22475;51.390;7.180;2023-02-16T08:26:29;11.30;90.40
36450;DHT22;22475;51.390;7.180;2023-02-16T08:28:58;11.30;90.40
36450;DHT22;22475;51.390;7.180;2023-02-16T08:31:28;11.30;90.40
36450;DHT22;22475;51.390;7.180;2023-02-16T08:33:57;11.30;90.40
36450;DHT22;22475;51.390;7.180;2023-02-16T08:36:27;11.30;90.40
36450;DHT22;22475;51.390;7.180;2023-02-16T08:38:57;11.30;90.30
36450;DHT22;22475;51.390;7.180;2023-02-16T08:41:28;11.30;90.30
36450;DHT22;22475;51.390;7.180;2023-02-16T08:43:55;11.30;90.20
36450;DHT22;22475;51.390;7.180;2023-02-16T08:46:22;11.30;90.10
36450;DHT22;22475;51.390;7.180;2023-02-16T08:48:49;11.30;90.10
36450;DHT22;22475;51.390;7.180;2023-02-16T08:51:18;11.30;90.10
36450;DHT22;22475;51.390;7.180;2023-02-16T08:53:46;11.40;90.10
36450;DHT22;22475;51.390;7.180;2023-02-16T08:56:14;11.30;90.10
36450;DHT22;22475;51.390;7.180;2023-02-16T08:58:41;11.30;90.00
36450;DHT22;22475;51.390;7.180;2023-02-16T09:01:09;11.30;89.90
36450;DHT22;22475;51.390;7.180;2023-02-16T09:03:37;11.30;89.80
36450;DHT22;22475;51.390;7.180;2023-02-16T09:06:07;11.30;89.80
36450;DHT22;22475;51.390;7.180;2023-02-16T09:08:35;11.30;89.80
36450;DHT22;22475;51.390;7.180;2023-02-16T09:11:05;11.30;89.90
36450;DHT22;22475;51.390;7.180;2023-02-16T09:13:32;11.30;90.00
36450;DHT22;22475;51.390;7.180;2023-02-16T09:16:01;11.30;90.00
36450;DHT22;22475;51.390;7.180;2023-02-16T09:18:28;11.30;90.10
36450;DHT22;22475;51.390;7.180;2023-02-16T09:21:01;11.30;90.10
36450;DHT22;22475;51.390;7.180;2023-02-16T09:23:29;11.30;90.10
36450;DHT22;22475;51.390;7.180;2023-02-16T09:25:58;11.40;90.20
36450;DHT22;22475;51.390;7.180;2023-02-16T09:28:28;11.30;90.10
36450;DHT22;22475;51.390;7.180;2023-02-16T09:30:55;11.30;90.10
36450;DHT22;22475;51.390;7.180;2023-02-16T09:33:22;11.40;90.20
36450;DHT22;22475;51.390;7.180;2023-02-16T09:35:48;11.40;90.10
36450;DHT22;22475;51.390;7.180;2023-02-16T09:38:16;11.40;90.10
36450;DHT22;22475;51.390;7.180;2023-02-16T09:40:43;11.40;90.10
36450;DHT22;22475;51.390;7.180;2023-02-16T09:43:20;11.40;90.10
36450;DHT22;22475;51.390;7.180;2023-02-16T09:45:51;11.40;90.00
36450;DHT22;22475;51.390;7.180;2023-02-16T09:48:25;11.40;89.90
36450;DHT22;22475;51.390;7.180;2023-02-16T09:50:56;11.40;90.00
36450;DHT22;22475;51.390;7.180;2023-02-16T09:53:31;11.40;90.00
36450;DHT22;22475;51.390;7.180;2023-02-16T09:56:06;11.40;90.00
36450;DHT22;22475;51.390;7.180;2023-02-16T09:58:42;11.40;90.00
36450;DHT22;22475;51.390;7.180;2023-02-16T10:01:18;11.40;90.00
36450;DHT22;22475;51.390;7.180;2023-02-16T10:03:53;11.40;90.00
36450;DHT22;22475;51.390;7.180;2023-02-16T10:06:44;11.40;89.90
36450;DHT22;22475;51.390;7.180;2023-02-16T10:09:16;11.40;89.90
36450;DHT22;22475;51.390;7.180;2023-02-16T10:11:46;11.40;89.90
36450;DHT22;22475;51.390;7.180;2023-02-16T10:14:21;11.40;89.80
36450;DHT22;22475;51.390;7.180;2023-02-16T10:16:54;11.40;89.70
36450;DHT22;22475;51.390;7.180;2023-02-16T10:19:25;11.40;89.60
36450;DHT22;22475;51.390;7.180;2023-02-16T10:21:56;11.40;89.70
36450;DHT22;22475;51.390;7.180;2023-02-16T10:24:25;11.40;89.70
36450;DHT22;22475;51.390;7.180;2023-02-16T10:26:57;11.40;89.80
36450;DHT22;22475;51.390;7.180;2023-02-16T10:29:26;11.40;89.80
36450;DHT22;22475;51.390;7.180;2023-02-16T10:32:03;11.40;89.80
36450;DHT22;22475;51.390;7.180;2023-02-16T10:34:44;11.40;89.90
36450;DHT22;22475;51.390;7.180;2023-02-16T10:37:20;11.50;90.00
36450;DHT22;22475;51.390;7.180;2023-02-16T10:39:55;11.40;90.00
36450;DHT22;22475;51.390;7.180;2023-02-16T10:42:29;11.50;90.10
36450;DHT22;22475;51.390;7.180;2023-02-16T10:45:02;11.50;90.10
36450;DHT22;22475;51.390;7.180;2023-02-16T10:47:32;11.40;90.00
36450;DHT22;22475;51.390;7.180;2023-02-16T10:50:01;11.50;90.10
36450;DHT22;22475;51.390;7.180;2023-02-16T10:52:29;11.40;90.00
36450;DHT22;22475;51.390;7.180;2023-02-16T10:55:01;11.50;90.10
36450;DHT22;22475;51.390;7.180;2023-02-16T10:57:29;11.50;90.10
36450;DHT22;22475;51.390;7.180;2023-02-16T10:59:58;11.50;90.10
36450;DHT22;22475;51.390;7.180;2023-02-16T11:02:29;11.50;90.20
36450;DHT22;22475;51.390;7.180;2023-02-16T11:04:58;11.50;90.20
36450;DHT22;22475;51.390;7.180;2023-02-16T11:07:27;11.50;90.20
36450;DHT22;22475;51.390;7.180;2023-02-16T11:09:57;11.50;90.20
36450;DHT22;22475;51.390;7.180;2023-02-16T11:12:27;11.50;90.10
36450;DHT22;22475;51.390;7.180;2023-02-16T11:14:58;11.50;90.20
36450;DHT22;22475;51.390;7.180;2023-02-16T11:17:27;11.50;90.20
36450;DHT22;22475;51.390;7.180;2023-02-16T11:19:59;11.50;90.20
36450;DHT22;22475;51.390;7.180;2023-02-16T11:22:30;11.50;90.20
36450;DHT22;22475;51.390;7.180;2023-02-16T11:25:18;11.50;90.20
36450;DHT22;22475;51.390;7.180;2023-02-16T11:27:50;11.50;90.30
36450;DHT22;22475;51.390;7.180;2023-02-16T11:30:19;11.50;90.20
36450;DHT22;22475;51.390;7.180;2023-02-16T11:32:48;11.50;90.20
36450;DHT22;22475;51.390;7.180;2023-02-16T11:35:17;11.50;90.20
36450;DHT22;22475;51.390;7.180;2023-02-16T11:37:45;11.50;90.20
36450;DHT22;22475;51.390;7.180;2023-02-16T11:40:19;11.50;90.20
36450;DHT22;22475;51.390;7.180;2023-02-16T11:42:48;11.50;90.20
36450;DHT22;22475;51.390;7.180;2023-02-16T11:45:26;11.50;90.20
36450;DHT22;22475;51.390;7.180;2023-02-16T11:47:54;11.50;90.20
36450;DHT22;22475;51.390;7.180;2023-02-16T11:50:25;11.60;90.30
36450;DHT22;22475;51.390;7.180;2023-02-16T11:52:55;11.50;90.20
36450;DHT22;22475;51.390;7.180;2023-02-16T11:55:25;11.50;90.20
36450;DHT22;22475;51.390;7.180;2023-02-16T11:57:53;11.50;90.20
36450;DHT22;22475;51.390;7.180;2023-02-16T12:00:23;11.50;90.30
36450;DHT22;22475;51.390;7.180;2023-02-16T12:03:05;11.50;90.20
36450;DHT22;22475;51.390;7.180;2023-02-16T12:05:48;11.60;90.30
36450;DHT22;22475;51.390;7.180;2023-02-16T12:08:32;11.60;90.30
36450;DHT22;22475;51.390;7.180;2023-02-16T12:11:22;11.60;90.30
36450;DHT22;22475;51.390;7.180;2023-02-16T12:16:47;11.60;90.30
36450;DHT22;22475;51.390;7.180;2023-02-16T12:19:25;11.60;90.30
36450;DHT22;22475;51.390;7.180;2023-02-16T12:22:03;11.60;90.30
36450;DHT22;22475;51.390;7.180;2023-02-16T12:24:39;11.60;90.30
36450;DHT22;22475;51.390;7.180;2023-02-16T12:27:15;11.60;90.30
36450;DHT22;22475;51.390;7.180;2023-02-16T12:29:52;11.60;90.30
36450;DHT22;22475;51.390;7.180;2023-02-16T12:32:32;11.60;90.30
36450;DHT22;22475;51.390;7.180;2023-02-16T12:35:16;11.60;90.30
36450;DHT22;22475;51.390;7.180;2023-02-16T12:37:48;11.60;90.30
36450;DHT22;22475;51.390;7.180;2023-02-16T12:40:26;11.60;90.30
36450;DHT22;22475;51.390;7.180;2023-02-16T12:43:01;11.60;90.30
36450;DHT22;22475;51.390;7.180;2023-02-16T12:45:36;11.60;90.40
36450;DHT22;22475;51.390;7.180;2023-02-16T12:48:15;11.60;90.40
36450;DHT22;22475;51.390;7.180;2023-02-16T12:50:47;11.60;90.40
36450;DHT22;22475;51.390;7.180;2023-02-16T12:53:22;11.60;90.40
36450;DHT22;22475;51.390;7.180;2023-02-16T12:55:55;11.60;90.50
36450;DHT22;22475;51.390;7.180;2023-02-16T12:58:25;11.60;90.50
36450;DHT22;22475;51.390;7.180;2023-02-16T13:00:56;11.60;90.80
36450;DHT22;22475;51.390;7.180;2023-02-16T13:03:32;11.60;90.50
36450;DHT22;22475;51.390;7.180;2023-02-16T13:06:09;11.60;90.50
36450;DHT22;22475;51.390;7.180;2023-02-16T13:08:42;11.60;90.50
36450;DHT22;22475;51.390;7.180;2023-02-16T13:11:16;11.60;90.60
36450;DHT22;22475;51.390;7.180;2023-02-16T13:13:46;11.60;90.50
36450;DHT22;22475;51.390;7.180;2023-02-16T13:16:16;11.60;90.60
36450;DHT22;22475;51.390;7.180;2023-02-16T13:18:46;11.60;90.50
36450;DHT22;22475;51.390;7.180;2023-02-16T13:21:25;11.60;90.60
36450;DHT22;22475;51.390;7.180;2023-02-16T13:24:04;11.60;90.60
36450;DHT22;22475;51.390;7.180;2023-02-16T13:26:42;11.60;90.50
36450;DHT22;22475;51.390;7.180;2023-02-16T13:29:45;11.60;90.60
36450;DHT22;22475;51.390;7.180;2023-02-16T13:32:35;11.60;90.50
36450;DHT22;22475;51.390;7.180;2023-02-16T13:35:15;11.60;90.50
36450;DHT22;22475;51.390;7.180;2023-02-16T13:38:01;11.60;90.40
36450;DHT22;22475;51.390;7.180;2023-02-16T13:41:05;11.60;90.40
36450;DHT22;22475;51.390;7.180;2023-02-16T13:43:40;11.60;90.40
36450;DHT22;22475;51.390;7.180;2023-02-16T13:46:12;11.60;90.40
36450;DHT22;22475;51.390;7.180;2023-02-16T13:48:45;11.70;90.50
36450;DHT22;22475;51.390;7.180;2023-02-16T13:51:15;11.60;90.50
36450;DHT22;22475;51.390;7.180;2023-02-16T13:53:50;11.60;90.50
36450;DHT22;22475;51.390;7.180;2023-02-16T13:56:33;11.60;90.50
36450;DHT22;22475;51.390;7.180;2023-02-16T14:02:02;11.60;90.60
36450;DHT22;22475;51.390;7.180;2023-02-16T14:05:00;11.70;90.60
36450;DHT22;22475;51.390;7.180;2023-02-16T14:07:33;11.60;90.50
36450;DHT22;22475;51.390;7.180;2023-02-16T14:10:04;11.60;90.50
36450;DHT22;22475;51.390;7.180;2023-02-16T14:12:37;11.70;90.60
36450;DHT22;22475;51.390;7.180;2023-02-16T14:15:15;11.70;90.60
36450;DHT22;22475;51.390;7.180;2023-02-16T14:17:43;11.70;90.60
36450;DHT22;22475;51.390;7.180;2023-02-16T14:20:26;11.60;90.60
36450;DHT22;22475;51.390;7.180;2023-02-16T14:22:54;11.60;90.60
36450;DHT22;22475;51.390;7.180;2023-02-16T14:25:31;11.70;90.60
36450;DHT22;22475;51.390;7.180;2023-02-16T14:28:01;11.70;90.60
36450;DHT22;22475;51.390;7.180;2023-02-16T14:30:30;11.70;90.60
36450;DHT22;22475;51.390;7.180;2023-02-16T14:33:00;11.70;90.60
36450;DHT22;22475;51.390;7.180;2023-02-16T14:35:32;11.70;90.50
36450;DHT22;22475;51.390;7.180;2023-02-16T14:38:01;11.70;90.60
36450;DHT22;22475;51.390;7.180;2023-02-16T14:40:50;11.70;90.60
36450;DHT22;22475;51.390;7.180;2023-02-16T14:43:29;11.70;90.60
36450;DHT22;22475;51.390;7.180;2023-02-16T14:46:29;11.70;90.60
36450;DHT22;22475;51.390;7.180;2023-02-16T14:55:34;11.70;90.70
36450;DHT22;22475;51.390;7.180;2023-02-16T14:58:10;11.70;90.70
36450;DHT22;22475;51.390;7.180;2023-02-16T15:00:44;11.70;90.70
36450;DHT22;22475;51.390;7.180;2023-02-16T15:03:16;11.70;91.00
36450;DHT22;22475;51.390;7.180;2023-02-16T15:05:50;11.70;90.60
36450;DHT22;22475;51.390;7.180;2023-02-16T15:08:19;11.70;90.60
36450;DHT22;22475;51.390;7.180;2023-02-16T15:10:49;11.70;90.60
36450;DHT22;22475;51.390;7.180;2023-02-16T15:13:19;11.70;90.60
36450;DHT22;22475;51.390;7.180;2023-02-16T15:15:50;11.70;90.60
36450;DHT22;22475;51.390;7.180;2023-02-16T15:18:22;11.70;90.60
36450;DHT22;22475;51.390;7.180;2023-02-16T15:20:51;11.70;90.50
36450;DHT22;22475;51.390;7.180;2023-02-16T15:23:21;11.70;90.50
36450;DHT22;22475;51.390;7.180;2023-02-16T15:25:55;11.70;90.50
36450;DHT22;22475;51.390;7.180;2023-02-16T15:28:25;11.70;90.40
36450;DHT22;22475;51.390;7.180;2023-02-16T15:30:55;11.80;90.40
36450;DHT22;22475;51.390;7.180;2023-02-16T15:33:30;11.70;90.40
36450;DHT22;22475;51.390;7.180;2023-02-16T15:36:00;11.80;90.30
36450;DHT22;22475;51.390;7.180;2023-02-16T15:38:30;11.80;90.40
36450;DHT22;22475;51.390;7.180;2023-02-16T15:40:59;11.80;90.40
36450;DHT22;22475;51.390;7.180;2023-02-16T15:43:30;11.70;90.40
36450;DHT22;22475;51.390;7.180;2023-02-16T15:46:00;11.80;90.40
36450;DHT22;22475;51.390;7.180;2023-02-16T15:48:30;11.80;90.40
36450;DHT22;22475;51.390;7.180;2023-02-16T15:51:01;11.80;90.40
36450;DHT22;22475;51.390;7.180;2023-02-16T15:53:38;11.80;90.40
36450;DHT22;22475;51.390;7.180;2023-02-16T15:58:57;11.80;90.40
36450;DHT22;22475;51.390;7.180;2023-02-16T16:01:29;11.80;90.30
36450;DHT22;22475;51.390;7.180;2023-02-16T16:04:17;11.80;90.30
36450;DHT22;22475;51.390;7.180;2023-02-16T16:06:44;11.80;90.30
36450;DHT22;22475;51.390;7.180;2023-02-16T16:09:22;11.80;90.20
36450;DHT22;22475;51.390;7.180;2023-02-16T16:11:52;11.80;90.20
36450;DHT22;22475;51.390;7.180;2023-02-16T16:14:19;11.80;90.30
36450;DHT22;22475;51.390;7.180;2023-02-16T16:16:48;11.80;90.30
36450;DHT22;22475;51.390;7.180;2023-02-16T16:19:18;11.80;90.40